sensor_id;sensor_type;location;lat;lon;timestamp;temperature;humidity
17425;DHT22;8830;50.978;5.058;2023-03-08T00:01:35;3.20;99.90
17425;DHT22;8830;50.978;5.058;2023-03-08T00:06:56;3.20;99.90
17425;DHT22;8830;50.978;5.058;2023-03-08T00:09:33;3.20;99.90
17425;DHT22;8830;50.978;5.058;2023-03-08T00:12:08;3.30;99.90
17425;DHT22;8830;50.978;5.058;2023-03-08T00:14:41;3.40;99.90
17425;DHT22;8830;50.978;5.058;2023-03-08T00:17:16;3.30;99.90
17425;DHT22;8830;50.978;5.058;2023-03-08T00:19:58;3.40;99.90
17425;DHT22;8830;50.978;5.058;2023-03-08T00:22:42;3.40;99.90
17425;DHT22;8830;50.978;5.058;2023-03-08T00:25:20;3.30;99.90
17425;DHT22;8830;50.978;5.058;2023-03-08T00:27:57;3.20;99.90
17425;DHT22;8830;50.978;5.058;2023-03-08T00:30:40;3.10;99.90
17425;DHT22;8830;50.978;5.058;2023-03-08T00:33:18;3.10;99.90
17425;DHT22;8830;50.978;5.058;2023-03-08T00:36:00;3.00;99.90
17425;DHT22;8830;50.978;5.058;2023-03-08T00:38:29;2.90;99.90
17425;DHT22;8830;50.978;5.058;2023-03-08T00:41:15;2.90;99.90
17425;DHT22;8830;50.978;5.058;2023-03-08T00:43:49;3.00;99.90
17425;DHT22;8830;50.978;5.058;2023-03-08T00:46:26;3.00;99.90
17425;DHT22;8830;50.978;5.058;2023-03-08T00:51:36;3.00;99.90
17425;DHT22;8830;50.978;5.058;2023-03-08T00:54:05;3.10;99.90
17425;DHT22;8830;50.978;5.058;2023-03-08T00:57:01;3.10;99.90
17425;DHT22;8830;50.978;5.058;2023-03-08T00:59:42;3.00;99.90
17425;DHT22;8830;50.978;5.058;2023-03-08T01:02:24;3.10;99.90
17425;DHT22;8830;50.978;5.058;2023-03-08T01:04:59;3.10;99.90
17425;DHT22;8830;50.978;5.058;2023-03-08T01:07:32;3.10;99.90
17425;DHT22;8830;50.978;5.058;2023-03-08T01:10:08;3.10;99.90
17425;DHT22;8830;50.978;5.058;2023-03-08T01:12:45;3.10;99.90
17425;DHT22;8830;50.978;5.058;2023-03-08T01:15:21;3.10;99.90
17425;DHT22;8830;50.978;5.058;2023-03-08T01:20:20;3.20;99.90
17425;DHT22;8830;50.978;5.058;2023-03-08T01:22:59;3.20;99.90
17425;DHT22;8830;50.978;5.058;2023-03-08T01:25:33;3.10;99.90
17425;DHT22;8830;50.978;5.058;2023-03-08T01:28:07;3.00;99.90
17425;DHT22;8830;50.978;5.058;2023-03-08T01:30:36;3.00;99.90
17425;DHT22;8830;50.978;5.058;2023-03-08T01:33:36;3.00;99.90
17425;DHT22;8830;50.978;5.058;2023-03-08T01:36:07;3.00;99.90
17425;DHT22;8830;50.978;5.058;2023-03-08T01:38:37;3.00;99.90
17425;DHT22;8830;50.978;5.058;2023-03-08T01:41:11;3.10;99.90
17425;DHT22;8830;50.978;5.058;2023-03-08T01:43:42;3.10;99.90
17425;DHT22;8830;50.978;5.058;2023-03-08T01:46:26;3.10;99.90
17425;DHT22;8830;50.978;5.058;2023-03-08T01:49:14;3.10;99.90
17425;DHT22;8830;50.978;5.058;2023-03-08T01:51:50;3.10;99.90
17425;DHT22;8830;50.978;5.058;2023-03-08T01:54:34;3.00;99.90
17425;DHT22;8830;50.978;5.058;2023-03-08T01:57:06;3.00;99.90
17425;DHT22;8830;50.978;5.058;2023-03-08T01:59:38;3.00;99.90
17425;DHT22;8830;50.978;5.058;2023-03-08T02:02:17;2.90;99.90
17425;DHT22;8830;50.978;5.058;2023-03-08T02:07:18;2.90;99.90
17425;DHT22;8830;50.978;5.058;2023-03-08T02:09:53;2.90;99.90
17425;DHT22;8830;50.978;5.058;2023-03-08T02:12:27;3.00;99.90
17425;DHT22;8830;50.978;5.058;2023-03-08T02:15:01;3.00;99.90
17425;DHT22;8830;50.978;5.058;2023-03-08T02:17:35;3.10;99.90
17425;DHT22;8830;50.978;5.058;2023-03-08T02:20:17;3.10;99.90
17425;DHT22;8830;50.978;5.058;2023-03-08T02:23:06;4.90;99.90
17425;DHT22;8830;50.978;5.058;2023-03-08T02:25:51;3.00;99.90
17425;DHT22;8830;50.978;5.058;2023-03-08T02:28:25;3.00;99.90
17425;DHT22;8830;50.978;5.058;2023-03-08T02:30:54;2.90;99.90
17425;DHT22;8830;50.978;5.058;2023-03-08T02:33:23;3.00;99.90
17425;DHT22;8830;50.978;5.058;2023-03-08T02:36:00;3.00;99.90
17425;DHT22;8830;50.978;5.058;2023-03-08T02:38:29;3.00;99.90
17425;DHT22;8830;50.978;5.058;2023-03-08T02:41:05;2.90;99.90
17425;DHT22;8830;50.978;5.058;2023-03-08T02:43:34;2.80;99.90
17425;DHT22;8830;50.978;5.058;2023-03-08T02:46:05;2.80;99.90
17425;DHT22;8830;50.978;5.058;2023-03-08T02:51:07;2.70;99.90
17425;DHT22;8830;50.978;5.058;2023-03-08T02:53:54;2.70;99.90
17425;DHT22;8830;50.978;5.058;2023-03-08T02:56:25;2.70;99.90
17425;DHT22;8830;50.978;5.058;2023-03-08T02:58:54;2.70;99.90
17425;DHT22;8830;50.978;5.058;2023-03-08T03:01:22;5.80;99.90
17425;DHT22;8830;50.978;5.058;2023-03-08T03:04:00;2.70;99.90
17425;DHT22;8830;50.978;5.058;2023-03-08T03:06:29;2.70;99.90
17425;DHT22;8830;50.978;5.058;2023-03-08T03:09:06;2.70;99.90
17425;DHT22;8830;50.978;5.058;2023-03-08T03:11:36;2.70;99.90
17425;DHT22;8830;50.978;5.058;2023-03-08T03:14:09;2.70;99.90
17425;DHT22;8830;50.978;5.058;2023-03-08T03:16:47;2.70;99.90
17425;DHT22;8830;50.978;5.058;2023-03-08T03:19:25;2.80;99.90
17425;DHT22;8830;50.978;5.058;2023-03-08T03:22:03;2.80;99.90
17425;DHT22;8830;50.978;5.058;2023-03-08T03:24:38;2.80;99.90
17425;DHT22;8830;50.978;5.058;2023-03-08T03:32:04;2.90;99.90
17425;DHT22;8830;50.978;5.058;2023-03-08T03:37:06;2.80;99.90
17425;DHT22;8830;50.978;5.058;2023-03-08T03:39:43;2.80;99.90
17425;DHT22;8830;50.978;5.058;2023-03-08T03:42:13;2.80;99.90
17425;DHT22;8830;50.978;5.058;2023-03-08T03:44:47;2.70;99.90
17425;DHT22;8830;50.978;5.058;2023-03-08T03:47:18;2.70;99.90
17425;DHT22;8830;50.978;5.058;2023-03-08T03:49:54;3.70;99.90
17425;DHT22;8830;50.978;5.058;2023-03-08T03:52:24;2.70;99.90
17425;DHT22;8830;50.978;5.058;2023-03-08T03:55:06;2.40;99.90
17425;DHT22;8830;50.978;5.058;2023-03-08T03:57:35;2.60;99.90
17425;DHT22;8830;50.978;5.058;2023-03-08T04:00:10;2.60;99.90
17425;DHT22;8830;50.978;5.058;2023-03-08T04:02:38;2.50;99.90
17425;DHT22;8830;50.978;5.058;2023-03-08T04:05:10;2.50;99.90
17425;DHT22;8830;50.978;5.058;2023-03-08T04:07:37;0.70;99.90
17425;DHT22;8830;50.978;5.058;2023-03-08T04:10:08;4.70;99.90
17425;DHT22;8830;50.978;5.058;2023-03-08T04:12:40;2.40;99.90
17425;DHT22;8830;50.978;5.058;2023-03-08T04:15:18;2.40;99.90
17425;DHT22;8830;50.978;5.058;2023-03-08T04:17:49;2.40;99.90
17425;DHT22;8830;50.978;5.058;2023-03-08T04:25:19;2.30;99.90
17425;DHT22;8830;50.978;5.058;2023-03-08T04:27:49;2.20;99.90
17425;DHT22;8830;50.978;5.058;2023-03-08T04:30:18;2.30;99.90
17425;DHT22;8830;50.978;5.058;2023-03-08T04:32:52;2.30;99.90
17425;DHT22;8830;50.978;5.058;2023-03-08T04:35:24;2.30;99.90
17425;DHT22;8830;50.978;5.058;2023-03-08T04:40:24;2.30;99.90
17425;DHT22;8830;50.978;5.058;2023-03-08T04:50:18;2.20;99.90
17425;DHT22;8830;50.978;5.058;2023-03-08T04:57:42;2.20;99.90
17425;DHT22;8830;50.978;5.058;2023-03-08T05:00:10;3.70;99.90
17425;DHT22;8830;50.978;5.058;2023-03-08T05:10:01;2.10;99.90
17425;DHT22;8830;50.978;5.058;2023-03-08T05:14:59;2.00;99.90
17425;DHT22;8830;50.978;5.058;2023-03-08T05:17:27;2.00;99.90
17425;DHT22;8830;50.978;5.058;2023-03-08T05:22:27;1.90;99.90
17425;DHT22;8830;50.978;5.058;2023-03-08T05:25:11;1.90;99.90
17425;DHT22;8830;50.978;5.058;2023-03-08T05:27:38;4.00;99.90
17425;DHT22;8830;50.978;5.058;2023-03-08T05:32:47;1.90;99.90
17425;DHT22;8830;50.978;5.058;2023-03-08T05:35:22;1.90;99.90
17425;DHT22;8830;50.978;5.058;2023-03-08T05:40:22;1.90;99.90
17425;DHT22;8830;50.978;5.058;2023-03-08T05:45:25;1.80;99.90
17425;DHT22;8830;50.978;5.058;2023-03-08T05:47:57;1.80;99.90
17425;DHT22;8830;50.978;5.058;2023-03-08T05:57:52;1.80;99.90
17425;DHT22;8830;50.978;5.058;2023-03-08T06:00:20;1.80;99.90
17425;DHT22;8830;50.978;5.058;2023-03-08T06:05:17;1.80;99.90
17425;DHT22;8830;50.978;5.058;2023-03-08T06:10:28;1.70;99.90
17425;DHT22;8830;50.978;5.058;2023-03-08T06:13:18;1.80;99.90
17425;DHT22;8830;50.978;5.058;2023-03-08T06:16:09;1.70;99.90
17425;DHT22;8830;50.978;5.058;2023-03-08T06:28:54;0.70;99.90
17425;DHT22;8830;50.978;5.058;2023-03-08T06:34:27;1.70;99.90
17425;DHT22;8830;50.978;5.058;2023-03-08T06:40:05;0.00;99.90
17425;DHT22;8830;50.978;5.058;2023-03-08T06:42:45;1.80;99.90
17425;DHT22;8830;50.978;5.058;2023-03-08T06:56:31;0.30;99.90
17425;DHT22;8830;50.978;5.058;2023-03-08T06:59:00;1.80;99.90
17425;DHT22;8830;50.978;5.058;2023-03-08T07:01:41;0.10;99.90
17425;DHT22;8830;50.978;5.058;2023-03-08T07:04:10;1.80;99.90
17425;DHT22;8830;50.978;5.058;2023-03-08T07:06:44;0.70;99.90
17425;DHT22;8830;50.978;5.058;2023-03-08T07:09:24;1.70;99.90
17425;DHT22;8830;50.978;5.058;2023-03-08T07:11:57;1.70;99.90
17425;DHT22;8830;50.978;5.058;2023-03-08T07:14:45;1.80;99.90
17425;DHT22;8830;50.978;5.058;2023-03-08T07:17:16;1.80;99.90
17425;DHT22;8830;50.978;5.058;2023-03-08T07:20:13;1.80;99.90
17425;DHT22;8830;50.978;5.058;2023-03-08T07:28:25;1.70;99.90
17425;DHT22;8830;50.978;5.058;2023-03-08T07:34:09;1.70;99.90
17425;DHT22;8830;50.978;5.058;2023-03-08T07:36:44;0.40;99.90
17425;DHT22;8830;50.978;5.058;2023-03-08T07:39:13;1.80;99.90
17425;DHT22;8830;50.978;5.058;2023-03-08T07:41:42;1.80;99.90
17425;DHT22;8830;50.978;5.058;2023-03-08T07:44:24;1.80;99.90
17425;DHT22;8830;50.978;5.058;2023-03-08T07:46:54;1.80;99.90
17425;DHT22;8830;50.978;5.058;2023-03-08T07:49:58;1.80;99.90
17425;DHT22;8830;50.978;5.058;2023-03-08T07:52:28;1.90;99.90
17425;DHT22;8830;50.978;5.058;2023-03-08T07:54:58;4.50;99.90
17425;DHT22;8830;50.978;5.058;2023-03-08T07:57:29;1.80;99.90
17425;DHT22;8830;50.978;5.058;2023-03-08T07:59:58;1.90;99.90
17425;DHT22;8830;50.978;5.058;2023-03-08T08:02:27;1.90;99.90
17425;DHT22;8830;50.978;5.058;2023-03-08T08:04:56;1.90;99.90
17425;DHT22;8830;50.978;5.058;2023-03-08T08:07:33;1.90;99.90
17425;DHT22;8830;50.978;5.058;2023-03-08T08:10:04;1.90;99.90
17425;DHT22;8830;50.978;5.058;2023-03-08T08:12:52;1.90;99.90
17425;DHT22;8830;50.978;5.058;2023-03-08T08:15:25;2.10;99.90
17425;DHT22;8830;50.978;5.058;2023-03-08T08:17:56;-1.80;99.90
17425;DHT22;8830;50.978;5.058;2023-03-08T08:22:52;1.90;99.90
17425;DHT22;8830;50.978;5.058;2023-03-08T08:25:22;2.00;99.90
17425;DHT22;8830;50.978;5.058;2023-03-08T08:27:50;4.90;99.90
17425;DHT22;8830;50.978;5.058;2023-03-08T08:30:20;2.00;99.90
17425;DHT22;8830;50.978;5.058;2023-03-08T08:33:00;2.00;99.90
17425;DHT22;8830;50.978;5.058;2023-03-08T08:35:29;1.30;99.90
17425;DHT22;8830;50.978;5.058;2023-03-08T08:37:59;2.10;99.90
17425;DHT22;8830;50.978;5.058;2023-03-08T08:40:32;2.10;99.90
17425;DHT22;8830;50.978;5.058;2023-03-08T08:45:36;2.10;99.90
17425;DHT22;8830;50.978;5.058;2023-03-08T08:48:07;2.10;99.90
17425;DHT22;8830;50.978;5.058;2023-03-08T08:53:20;2.20;99.90
17425;DHT22;8830;50.978;5.058;2023-03-08T08:55:53;2.20;99.90
17425;DHT22;8830;50.978;5.058;2023-03-08T08:58:47;2.30;99.90
17425;DHT22;8830;50.978;5.058;2023-03-08T09:01:16;1.90;99.90
17425;DHT22;8830;50.978;5.058;2023-03-08T09:03:50;2.30;99.90
17425;DHT22;8830;50.978;5.058;2023-03-08T09:06:39;2.40;99.90
17425;DHT22;8830;50.978;5.058;2023-03-08T09:09:16;2.30;99.90
17425;DHT22;8830;50.978;5.058;2023-03-08T09:17:57;2.50;99.90
17425;DHT22;8830;50.978;5.058;2023-03-08T09:20:28;2.40;99.90
17425;DHT22;8830;50.978;5.058;2023-03-08T09:23:10;2.50;99.90
17425;DHT22;8830;50.978;5.058;2023-03-08T09:25:44;2.40;99.90
17425;DHT22;8830;50.978;5.058;2023-03-08T09:33:58;2.50;99.90
17425;DHT22;8830;50.978;5.058;2023-03-08T09:39:11;2.50;99.90
17425;DHT22;8830;50.978;5.058;2023-03-08T09:41:50;2.70;99.90
17425;DHT22;8830;50.978;5.058;2023-03-08T09:44:48;2.80;99.90
17425;DHT22;8830;50.978;5.058;2023-03-08T09:47:39;2.80;99.90
17425;DHT22;8830;50.978;5.058;2023-03-08T09:50:26;2.90;99.90
17425;DHT22;8830;50.978;5.058;2023-03-08T09:53:05;2.80;99.90
17425;DHT22;8830;50.978;5.058;2023-03-08T09:56:22;2.70;99.90
17425;DHT22;8830;50.978;5.058;2023-03-08T09:58:55;1.30;99.90
17425;DHT22;8830;50.978;5.058;2023-03-08T10:01:37;2.70;99.90
17425;DHT22;8830;50.978;5.058;2023-03-08T10:04:43;2.80;99.90
17425;DHT22;8830;50.978;5.058;2023-03-08T10:07:36;2.90;99.90
17425;DHT22;8830;50.978;5.058;2023-03-08T10:10:35;3.00;99.90
17425;DHT22;8830;50.978;5.058;2023-03-08T10:13:45;3.00;99.90
17425;DHT22;8830;50.978;5.058;2023-03-08T10:16:19;3.10;99.90
17425;DHT22;8830;50.978;5.058;2023-03-08T10:18:57;3.10;99.90
17425;DHT22;8830;50.978;5.058;2023-03-08T10:21:39;3.10;99.90
17425;DHT22;8830;50.978;5.058;2023-03-08T10:24:18;3.10;99.90
17425;DHT22;8830;50.978;5.058;2023-03-08T10:26:54;3.20;99.90
17425;DHT22;8830;50.978;5.058;2023-03-08T10:29:45;3.20;99.90
17425;DHT22;8830;50.978;5.058;2023-03-08T10:32:22;3.40;99.90
17425;DHT22;8830;50.978;5.058;2023-03-08T10:34:52;3.70;99.90
17425;DHT22;8830;50.978;5.058;2023-03-08T10:37:41;3.80;99.90
17425;DHT22;8830;50.978;5.058;2023-03-08T10:40:20;3.90;99.90
17425;DHT22;8830;50.978;5.058;2023-03-08T10:43:18;4.20;99.90
17425;DHT22;8830;50.978;5.058;2023-03-08T10:46:04;4.30;99.90
17425;DHT22;8830;50.978;5.058;2023-03-08T10:48:34;4.20;99.90
17425;DHT22;8830;50.978;5.058;2023-03-08T10:51:16;3.40;99.90
17425;DHT22;8830;50.978;5.058;2023-03-08T10:53:54;4.00;99.90
17425;DHT22;8830;50.978;5.058;2023-03-08T10:56:37;4.00;99.90
17425;DHT22;8830;50.978;5.058;2023-03-08T10:59:18;4.20;99.90
17425;DHT22;8830;50.978;5.058;2023-03-08T11:01:52;4.10;99.90
17425;DHT22;8830;50.978;5.058;2023-03-08T11:04:35;4.20;99.90
17425;DHT22;8830;50.978;5.058;2023-03-08T11:07:17;4.30;99.90
17425;DHT22;8830;50.978;5.058;2023-03-08T11:10:15;3.40;99.90
17425;DHT22;8830;50.978;5.058;2023-03-08T11:12:44;4.20;99.90
17425;DHT22;8830;50.978;5.058;2023-03-08T11:15:17;4.10;99.90
17425;DHT22;8830;50.978;5.058;2023-03-08T11:17:56;3.30;99.90
17425;DHT22;8830;50.978;5.058;2023-03-08T11:20:41;4.20;99.90
17425;DHT22;8830;50.978;5.058;2023-03-08T11:23:22;5.50;99.90
17425;DHT22;8830;50.978;5.058;2023-03-08T11:25:55;4.70;99.90
17425;DHT22;8830;50.978;5.058;2023-03-08T11:28:45;4.50;99.90
17425;DHT22;8830;50.978;5.058;2023-03-08T11:31:41;3.40;99.90
17425;DHT22;8830;50.978;5.058;2023-03-08T11:34:27;4.50;99.90
17425;DHT22;8830;50.978;5.058;2023-03-08T11:37:16;4.40;99.90
17425;DHT22;8830;50.978;5.058;2023-03-08T11:40:19;1.70;99.90
17425;DHT22;8830;50.978;5.058;2023-03-08T11:43:16;3.50;99.90
17425;DHT22;8830;50.978;5.058;2023-03-08T11:45:50;4.90;99.90
17425;DHT22;8830;50.978;5.058;2023-03-08T11:51:56;3.60;99.90
17425;DHT22;8830;50.978;5.058;2023-03-08T11:54:57;5.70;99.90
17425;DHT22;8830;50.978;5.058;2023-03-08T11:57:50;3.00;99.90
17425;DHT22;8830;50.978;5.058;2023-03-08T12:00:36;4.50;99.90
17425;DHT22;8830;50.978;5.058;2023-03-08T12:03:11;4.70;99.90
17425;DHT22;8830;50.978;5.058;2023-03-08T12:05:46;4.30;99.90
17425;DHT22;8830;50.978;5.058;2023-03-08T12:08:26;4.80;99.90
17425;DHT22;8830;50.978;5.058;2023-03-08T12:11:06;4.80;99.90
17425;DHT22;8830;50.978;5.058;2023-03-08T12:13:38;4.00;99.90
17425;DHT22;8830;50.978;5.058;2023-03-08T12:16:17;3.90;99.90
17425;DHT22;8830;50.978;5.058;2023-03-08T12:18:58;4.30;99.90
17425;DHT22;8830;50.978;5.058;2023-03-08T12:21:48;4.70;99.90
17425;DHT22;8830;50.978;5.058;2023-03-08T12:24:37;4.70;99.90
17425;DHT22;8830;50.978;5.058;2023-03-08T12:27:47;2.10;99.90
17425;DHT22;8830;50.978;5.058;2023-03-08T12:31:06;4.90;99.90
17425;DHT22;8830;50.978;5.058;2023-03-08T12:33:57;4.80;99.90
17425;DHT22;8830;50.978;5.058;2023-03-08T12:39:26;4.90;99.90
17425;DHT22;8830;50.978;5.058;2023-03-08T12:42:27;4.90;99.90
17425;DHT22;8830;50.978;5.058;2023-03-08T12:48:16;4.70;99.90
17425;DHT22;8830;50.978;5.058;2023-03-08T12:51:01;4.60;99.90
17425;DHT22;8830;50.978;5.058;2023-03-08T12:54:00;4.60;99.90
17425;DHT22;8830;50.978;5.058;2023-03-08T13:00:32;4.50;99.90
17425;DHT22;8830;50.978;5.058;2023-03-08T13:03:35;4.50;99.90
17425;DHT22;8830;50.978;5.058;2023-03-08T13:09:42;4.30;99.90
17425;DHT22;8830;50.978;5.058;2023-03-08T13:14:59;4.30;99.90
17425;DHT22;8830;50.978;5.058;2023-03-08T13:17:40;4.40;99.90
17425;DHT22;8830;50.978;5.058;2023-03-08T13:23:45;4.60;99.90
17425;DHT22;8830;50.978;5.058;2023-03-08T13:26:51;4.40;99.90
17425;DHT22;8830;50.978;5.058;2023-03-08T13:29:35;4.40;99.90
17425;DHT22;8830;50.978;5.058;2023-03-08T13:32:27;5.60;99.90
17425;DHT22;8830;50.978;5.058;2023-03-08T13:35:10;4.50;99.90
17425;DHT22;8830;50.978;5.058;2023-03-08T13:38:02;4.50;99.90
17425;DHT22;8830;50.978;5.058;2023-03-08T13:40:37;3.50;99.90
17425;DHT22;8830;50.978;5.058;2023-03-08T13:43:16;5.70;99.90
17425;DHT22;8830;50.978;5.058;2023-03-08T13:45:49;4.70;99.90
17425;DHT22;8830;50.978;5.058;2023-03-08T13:48:19;5.10;99.90
17425;DHT22;8830;50.978;5.058;2023-03-08T13:50:58;4.50;99.90
17425;DHT22;8830;50.978;5.058;2023-03-08T13:53:35;4.70;99.90
17425;DHT22;8830;50.978;5.058;2023-03-08T13:56:15;4.70;99.90
17425;DHT22;8830;50.978;5.058;2023-03-08T13:58:49;4.40;99.90
17425;DHT22;8830;50.978;5.058;2023-03-08T14:01:49;4.30;99.90
17425;DHT22;8830;50.978;5.058;2023-03-08T14:04:33;2.70;99.90
17425;DHT22;8830;50.978;5.058;2023-03-08T14:07:28;5.30;99.90
17425;DHT22;8830;50.978;5.058;2023-03-08T14:10:13;4.30;99.90
17425;DHT22;8830;50.978;5.058;2023-03-08T14:13:12;4.20;99.90
17425;DHT22;8830;50.978;5.058;2023-03-08T14:15:51;4.30;99.90
17425;DHT22;8830;50.978;5.058;2023-03-08T14:18:46;4.20;99.90
17425;DHT22;8830;50.978;5.058;2023-03-08T14:21:19;4.20;99.90
17425;DHT22;8830;50.978;5.058;2023-03-08T14:23:57;4.20;99.90
17425;DHT22;8830;50.978;5.058;2023-03-08T14:26:35;4.20;99.90
17425;DHT22;8830;50.978;5.058;2023-03-08T14:29:12;6.00;99.90
17425;DHT22;8830;50.978;5.058;2023-03-08T14:31:51;4.10;99.90
17425;DHT22;8830;50.978;5.058;2023-03-08T14:34:20;4.10;99.90
17425;DHT22;8830;50.978;5.058;2023-03-08T14:36:52;5.10;99.90
17425;DHT22;8830;50.978;5.058;2023-03-08T14:39:29;4.60;99.90
17425;DHT22;8830;50.978;5.058;2023-03-08T14:42:14;4.10;99.90
17425;DHT22;8830;50.978;5.058;2023-03-08T14:44:51;6.10;99.90
17425;DHT22;8830;50.978;5.058;2023-03-08T14:47:21;4.10;99.90
17425;DHT22;8830;50.978;5.058;2023-03-08T14:50:01;4.80;99.90
17425;DHT22;8830;50.978;5.058;2023-03-08T14:52:33;4.40;99.90
17425;DHT22;8830;50.978;5.058;2023-03-08T14:55:19;4.10;99.90
17425;DHT22;8830;50.978;5.058;2023-03-08T14:57:47;4.50;99.90
17425;DHT22;8830;50.978;5.058;2023-03-08T15:00:15;4.40;99.90
17425;DHT22;8830;50.978;5.058;2023-03-08T15:02:43;4.00;99.90
17425;DHT22;8830;50.978;5.058;2023-03-08T15:05:14;4.10;99.90
17425;DHT22;8830;50.978;5.058;2023-03-08T15:07:42;4.00;99.90
17425;DHT22;8830;50.978;5.058;2023-03-08T15:10:21;4.00;99.90
17425;DHT22;8830;50.978;5.058;2023-03-08T15:12:50;3.90;99.90
17425;DHT22;8830;50.978;5.058;2023-03-08T15:15:17;4.00;99.90
17425;DHT22;8830;50.978;5.058;2023-03-08T15:17:44;4.00;99.90
17425;DHT22;8830;50.978;5.058;2023-03-08T15:20:12;4.00;99.90
17425;DHT22;8830;50.978;5.058;2023-03-08T15:22:43;3.90;99.90
17425;DHT22;8830;50.978;5.058;2023-03-08T15:25:20;3.90;99.90
17425;DHT22;8830;50.978;5.058;2023-03-08T15:27:48;4.00;99.90
17425;DHT22;8830;50.978;5.058;2023-03-08T15:30:23;4.50;99.90
17425;DHT22;8830;50.978;5.058;2023-03-08T15:32:50;4.00;99.90
17425;DHT22;8830;50.978;5.058;2023-03-08T15:35:18;4.10;99.90
17425;DHT22;8830;50.978;5.058;2023-03-08T15:37:45;4.00;99.90
17425;DHT22;8830;50.978;5.058;2023-03-08T15:40:14;3.90;99.90
17425;DHT22;8830;50.978;5.058;2023-03-08T15:42:43;3.90;99.90
17425;DHT22;8830;50.978;5.058;2023-03-08T15:45:11;3.90;99.90
17425;DHT22;8830;50.978;5.058;2023-03-08T15:47:38;4.90;99.90
17425;DHT22;8830;50.978;5.058;2023-03-08T15:50:13;4.00;99.90
17425;DHT22;8830;50.978;5.058;2023-03-08T15:52:42;6.60;99.90
17425;DHT22;8830;50.978;5.058;2023-03-08T15:55:12;4.00;99.90
17425;DHT22;8830;50.978;5.058;2023-03-08T15:58:14;4.00;99.90
17425;DHT22;8830;50.978;5.058;2023-03-08T16:00:53;4.00;99.90
17425;DHT22;8830;50.978;5.058;2023-03-08T16:05:53;3.90;99.90
17425;DHT22;8830;50.978;5.058;2023-03-08T16:08:23;6.20;99.90
17425;DHT22;8830;50.978;5.058;2023-03-08T16:13:22;3.90;99.90
17425;DHT22;8830;50.978;5.058;2023-03-08T16:15:49;3.40;99.90
17425;DHT22;8830;50.978;5.058;2023-03-08T16:18:15;6.10;99.90
17425;DHT22;8830;50.978;5.058;2023-03-08T16:23:11;3.90;99.90
17425;DHT22;8830;50.978;5.058;2023-03-08T16:25:44;3.90;99.90
17425;DHT22;8830;50.978;5.058;2023-03-08T16:28:11;4.00;99.90
17425;DHT22;8830;50.978;5.058;2023-03-08T16:30:40;3.90;99.90
17425;DHT22;8830;50.978;5.058;2023-03-08T16:33:08;3.90;99.90
17425;DHT22;8830;50.978;5.058;2023-03-08T16:38:03;3.80;99.90
17425;DHT22;8830;50.978;5.058;2023-03-08T16:40:30;3.90;99.90
17425;DHT22;8830;50.978;5.058;2023-03-08T16:42:58;3.90;99.90
17425;DHT22;8830;50.978;5.058;2023-03-08T16:45:28;3.90;99.90
17425;DHT22;8830;50.978;5.058;2023-03-08T16:47:56;4.00;99.90
17425;DHT22;8830;50.978;5.058;2023-03-08T16:50:26;4.10;99.90
17425;DHT22;8830;50.978;5.058;2023-03-08T16:52:53;4.00;99.90
17425;DHT22;8830;50.978;5.058;2023-03-08T16:55:21;4.00;99.90
17425;DHT22;8830;50.978;5.058;2023-03-08T16:57:48;3.90;99.90
17425;DHT22;8830;50.978;5.058;2023-03-08T17:00:15;3.80;99.90
17425;DHT22;8830;50.978;5.058;2023-03-08T17:02:43;3.90;99.90
17425;DHT22;8830;50.978;5.058;2023-03-08T17:05:11;3.80;99.90
17425;DHT22;8830;50.978;5.058;2023-03-08T17:07:38;3.80;99.90
17425;DHT22;8830;50.978;5.058;2023-03-08T17:10:07;3.80;99.90
17425;DHT22;8830;50.978;5.058;2023-03-08T17:12:34;3.90;99.90
17425;DHT22;8830;50.978;5.058;2023-03-08T17:15:01;3.90;99.90
17425;DHT22;8830;50.978;5.058;2023-03-08T17:19:56;3.80;99.90
17425;DHT22;8830;50.978;5.058;2023-03-08T17:22:25;3.70;99.90
17425;DHT22;8830;50.978;5.058;2023-03-08T17:27:20;3.60;99.90
17425;DHT22;8830;50.978;5.058;2023-03-08T17:32:16;3.60;99.90
17425;DHT22;8830;50.978;5.058;2023-03-08T17:34:43;3.50;99.90
17425;DHT22;8830;50.978;5.058;2023-03-08T17:37:09;3.60;99.90
17425;DHT22;8830;50.978;5.058;2023-03-08T17:39:38;3.50;99.90
17425;DHT22;8830;50.978;5.058;2023-03-08T17:42:06;3.60;99.90
17425;DHT22;8830;50.978;5.058;2023-03-08T17:44:36;3.50;99.90
17425;DHT22;8830;50.978;5.058;2023-03-08T17:47:03;3.50;99.90
17425;DHT22;8830;50.978;5.058;2023-03-08T17:49:32;3.40;99.90
17425;DHT22;8830;50.978;5.058;2023-03-08T17:51:59;3.40;99.90
17425;DHT22;8830;50.978;5.058;2023-03-08T17:54:28;3.40;99.90
17425;DHT22;8830;50.978;5.058;2023-03-08T17:56:56;3.50;99.90
17425;DHT22;8830;50.978;5.058;2023-03-08T18:01:51;3.40;99.90
17425;DHT22;8830;50.978;5.058;2023-03-08T18:04:18;3.90;99.90
17425;DHT22;8830;50.978;5.058;2023-03-08T18:09:15;3.40;99.90
17425;DHT22;8830;50.978;5.058;2023-03-08T18:11:42;3.40;99.90
17425;DHT22;8830;50.978;5.058;2023-03-08T18:14:12;3.40;99.90
17425;DHT22;8830;50.978;5.058;2023-03-08T18:16:40;3.40;99.90
17425;DHT22;8830;50.978;5.058;2023-03-08T18:19:10;3.40;99.90
17425;DHT22;8830;50.978;5.058;2023-03-08T18:21:38;3.70;99.90
17425;DHT22;8830;50.978;5.058;2023-03-08T18:24:06;6.00;99.90
17425;DHT22;8830;50.978;5.058;2023-03-08T18:26:34;3.40;99.90
17425;DHT22;8830;50.978;5.058;2023-03-08T18:29:01;3.40;99.90
17425;DHT22;8830;50.978;5.058;2023-03-08T18:31:30;3.80;99.90
17425;DHT22;8830;50.978;5.058;2023-03-08T18:33:59;3.50;99.90
17425;DHT22;8830;50.978;5.058;2023-03-08T18:36:26;4.80;99.90
17425;DHT22;8830;50.978;5.058;2023-03-08T18:38:53;2.50;99.90
17425;DHT22;8830;50.978;5.058;2023-03-08T18:41:22;3.80;99.90
17425;DHT22;8830;50.978;5.058;2023-03-08T18:43:52;3.50;99.90
17425;DHT22;8830;50.978;5.058;2023-03-08T18:46:22;3.50;99.90
17425;DHT22;8830;50.978;5.058;2023-03-08T18:48:54;3.50;99.90
17425;DHT22;8830;50.978;5.058;2023-03-08T18:51:23;2.10;99.90
17425;DHT22;8830;50.978;5.058;2023-03-08T18:53:50;3.50;99.90
17425;DHT22;8830;50.978;5.058;2023-03-08T18:56:18;5.30;99.90
17425;DHT22;8830;50.978;5.058;2023-03-08T18:58:45;3.50;99.90
17425;DHT22;8830;50.978;5.058;2023-03-08T19:01:14;3.50;99.90
17425;DHT22;8830;50.978;5.058;2023-03-08T19:03:42;4.00;99.90
17425;DHT22;8830;50.978;5.058;2023-03-08T19:06:11;3.50;99.90
17425;DHT22;8830;50.978;5.058;2023-03-08T19:08:39;3.60;99.90
17425;DHT22;8830;50.978;5.058;2023-03-08T19:11:10;3.60;99.90
17425;DHT22;8830;50.978;5.058;2023-03-08T19:13:39;3.50;99.90
17425;DHT22;8830;50.978;5.058;2023-03-08T19:16:15;4.70;99.90
17425;DHT22;8830;50.978;5.058;2023-03-08T19:18:43;3.50;99.90
17425;DHT22;8830;50.978;5.058;2023-03-08T19:21:15;4.00;99.90
17425;DHT22;8830;50.978;5.058;2023-03-08T19:23:42;3.50;99.90
17425;DHT22;8830;50.978;5.058;2023-03-08T19:26:13;4.00;99.90
17425;DHT22;8830;50.978;5.058;2023-03-08T19:28:58;3.40;99.90
17425;DHT22;8830;50.978;5.058;2023-03-08T19:31:25;3.50;99.90
17425;DHT22;8830;50.978;5.058;2023-03-08T19:36:22;3.40;99.90
17425;DHT22;8830;50.978;5.058;2023-03-08T19:38:49;3.50;99.90
17425;DHT22;8830;50.978;5.058;2023-03-08T19:41:16;3.50;99.90
17425;DHT22;8830;50.978;5.058;2023-03-08T19:43:43;3.40;99.90
17425;DHT22;8830;50.978;5.058;2023-03-08T19:46:10;3.40;99.90
17425;DHT22;8830;50.978;5.058;2023-03-08T19:48:42;3.40;99.90
17425;DHT22;8830;50.978;5.058;2023-03-08T19:51:10;3.50;99.90
17425;DHT22;8830;50.978;5.058;2023-03-08T19:53:39;3.40;99.90
17425;DHT22;8830;50.978;5.058;2023-03-08T19:56:06;3.40;99.90